Time;durP1;ratioP1;P1;durP2;ratioP2;P2;SDS_P1;SDS_P2;PMS_P1;PMS_P2;Temp;Humidity;BMP_temperature;BMP_pressure;BME280_temperature;BME280_humidity;BME280_pressure;Samples;Min_cycle;Max_cycle;Signal;HPM_P1;HPM_P2
2020/12/15 00:01:06;;;;;;;17.80;7.50;;;8.90;88.00;;;;;;5019425;28;20044;-52
2020/12/15 00:03:32;;;;;;;14.45;6.90;;;8.80;87.90;;;;;;5017701;28;20042;-52
2020/12/15 00:05:57;;;;;;;13.85;6.80;;;8.80;87.80;;;;;;5017180;28;20025;-52
2020/12/15 00:08:23;;;;;;;13.63;6.90;;;8.90;87.90;;;;;;5017206;28;20065;-52
2020/12/15 00:10:49;;;;;;;14.32;7.22;;;8.80;87.80;;;;;;5030194;28;20064;-52
2020/12/15 00:13:14;;;;;;;13.88;6.63;;;8.80;87.90;;;;;;5034431;28;20167;-52
2020/12/15 00:15:40;;;;;;;12.75;6.43;;;8.80;87.80;;;;;;5032781;28;20068;-52
2020/12/15 00:18:06;;;;;;;16.48;6.68;;;8.80;87.80;;;;;;5036462;28;20033;-52
2020/12/15 00:20:32;;;;;;;16.25;7.55;;;8.80;87.90;;;;;;5036908;28;20108;-52
2020/12/15 00:22:58;;;;;;;14.82;6.72;;;8.80;87.80;;;;;;5035045;28;20458;-52
2020/12/15 00:25:24;;;;;;;13.95;7.00;;;8.80;87.90;;;;;;5036484;28;20029;-52
2020/12/15 00:27:49;;;;;;;17.15;8.68;;;8.80;87.80;;;;;;5036562;28;20036;-52
2020/12/15 00:30:15;;;;;;;16.13;7.57;;;8.80;87.80;;;;;;5018258;28;20061;-52
2020/12/15 00:32:45;;;;;;;15.95;8.05;;;8.80;87.80;;;;;;5017034;28;20459;-52
2020/12/15 00:35:11;;;;;;;13.63;7.55;;;8.80;87.70;;;;;;5016469;28;20030;-52
2020/12/15 00:37:37;;;;;;;21.95;8.00;;;8.80;87.90;;;;;;5016659;28;20036;-52
2020/12/15 00:40:03;;;;;;;21.88;7.90;;;8.80;87.70;;;;;;5016790;28;20030;-52
2020/12/15 00:42:29;;;;;;;21.25;7.88;;;8.80;87.70;;;;;;5022615;28;20459;-52
2020/12/15 00:44:54;;;;;;;17.52;7.70;;;8.80;87.80;;;;;;5035829;28;20086;-52
2020/12/15 00:47:20;;;;;;;14.48;6.97;;;8.80;87.70;;;;;;5035874;28;20072;-52
2020/12/15 00:49:45;;;;;;;21.65;9.30;;;8.90;87.80;;;;;;5036258;28;20048;-52
2020/12/15 00:52:11;;;;;;;20.92;7.90;;;8.80;87.80;;;;;;5036069;28;20074;-52
2020/12/15 00:54:37;;;;;;;22.20;8.70;;;8.80;87.80;;;;;;5035163;28;20228;-52
2020/12/15 00:57:02;;;;;;;16.92;8.50;;;8.80;88.00;;;;;;5027535;28;20117;-51
2020/12/15 00:59:28;;;;;;;22.70;8.45;;;8.80;87.80;;;;;;5016476;28;20431;-52
2020/12/15 01:02:01;;;;;;;16.98;7.78;;;8.80;87.70;;;;;;5016221;28;20049;-52
2020/12/15 01:04:27;;;;;;;19.42;9.00;;;8.80;87.80;;;;;;5016301;28;20026;-52
2020/12/15 01:06:52;;;;;;;17.75;8.60;;;8.80;87.80;;;;;;5016099;28;20037;-52
2020/12/15 01:09:18;;;;;;;22.00;8.60;;;8.90;87.90;;;;;;5016088;28;20502;-52
2020/12/15 01:11:44;;;;;;;17.25;8.23;;;8.90;87.70;;;;;;5032135;28;20053;-52
2020/12/15 01:14:10;;;;;;;18.98;7.78;;;8.90;87.60;;;;;;5025147;28;20116;-52
2020/12/15 01:16:35;;;;;;;18.20;7.63;;;8.80;87.80;;;;;;5015829;28;20026;-51
2020/12/15 01:19:01;;;;;;;12.60;7.20;;;8.80;87.60;;;;;;5016251;28;20444;-52
2020/12/15 01:21:30;;;;;;;17.50;7.90;;;8.90;87.70;;;;;;5015571;28;20042;-52
2020/12/15 01:23:57;;;;;;;14.27;7.63;;;8.90;87.60;;;;;;5024863;28;20502;-52
2020/12/15 01:26:23;;;;;;;17.48;8.00;;;8.80;87.70;;;;;;5015697;28;20060;-52
2020/12/15 01:28:50;;;;;;;16.33;6.88;;;8.90;87.90;;;;;;5015951;28;20022;-52
2020/12/15 01:31:22;;;;;;;14.27;7.03;;;8.90;87.80;;;;;;5015721;28;20064;-52
2020/12/15 01:33:47;;;;;;;15.32;7.68;;;8.90;87.80;;;;;;5016016;28;20363;-52
2020/12/15 01:36:13;;;;;;;13.88;5.88;;;8.90;87.70;;;;;;5047124;28;20113;-52
2020/12/15 01:38:41;;;;;;;14.00;6.35;;;8.90;87.70;;;;;;5021515;28;20363;-52
2020/12/15 01:41:06;;;;;;;13.93;7.30;;;8.90;87.80;;;;;;5034923;28;20036;-52
2020/12/15 01:43:32;;;;;;;13.85;7.30;;;8.90;87.90;;;;;;5033093;28;20033;-51
2020/12/15 01:45:58;;;;;;;17.75;7.53;;;8.90;87.90;;;;;;5035080;28;20017;-52
2020/12/15 01:48:24;;;;;;;15.63;8.15;;;8.80;87.80;;;;;;5035187;28;20029;-52
2020/12/15 01:50:50;;;;;;;17.20;8.20;;;8.90;87.80;;;;;;5035124;28;20025;-52
2020/12/15 01:53:16;;;;;;;16.30;7.65;;;8.90;87.70;;;;;;5019954;28;20034;-52
2020/12/15 01:55:44;;;;;;;18.98;8.98;;;8.90;87.80;;;;;;5014707;28;20030;-52
2020/12/15 01:58:10;;;;;;;16.83;7.97;;;8.90;87.80;;;;;;5015398;28;20058;-52
2020/12/15 02:00:35;;;;;;;12.18;6.80;;;8.80;87.80;;;;;;5014567;28;20040;-52
2020/12/15 02:03:02;;;;;;;15.15;6.38;;;8.80;87.70;;;;;;5015366;28;20125;-52
2020/12/15 02:05:28;;;;;;;14.43;7.40;;;8.80;87.60;;;;;;5034317;28;20047;-52
2020/12/15 02:07:54;;;;;;;18.17;7.68;;;8.90;87.60;;;;;;5017169;28;20084;-52
2020/12/15 02:10:20;;;;;;;17.92;7.97;;;8.90;87.70;;;;;;5015072;28;20065;-52
2020/12/15 02:12:46;;;;;;;16.13;7.10;;;8.90;87.70;;;;;;5033169;28;20116;-52
2020/12/15 02:15:11;;;;;;;16.73;7.60;;;8.90;87.60;;;;;;5024851;28;20447;-52
2020/12/15 02:17:37;;;;;;;18.27;7.22;;;8.80;87.60;;;;;;5034574;28;20029;-52
2020/12/15 02:20:07;;;;;;;20.45;8.02;;;8.90;87.70;;;;;;5034726;28;20025;-51
2020/12/15 02:22:33;;;;;;;21.35;9.07;;;8.90;87.90;;;;;;5013999;28;20344;-52
2020/12/15 02:24:59;;;;;;;21.75;8.18;;;8.90;87.80;;;;;;5014797;28;20037;-52
2020/12/15 02:27:25;;;;;;;23.13;9.55;;;8.90;87.80;;;;;;5014842;28;20025;-51
2020/12/15 02:29:51;;;;;;;18.23;8.48;;;8.90;87.90;;;;;;5014848;28;20054;-52
2020/12/15 02:32:16;;;;;;;19.95;9.32;;;8.90;87.70;;;;;;5014740;28;20478;-52
2020/12/15 02:34:43;;;;;;;17.55;7.82;;;8.80;87.90;;;;;;5018940;28;20034;-52
2020/12/15 02:37:10;;;;;;;25.38;9.07;;;8.80;87.80;;;;;;5015794;28;20044;-52
2020/12/15 02:39:35;;;;;;;18.27;7.40;;;8.90;87.80;;;;;;5029326;28;20450;-52
2020/12/15 02:42:01;;;;;;;25.73;9.48;;;8.80;87.90;;;;;;5027735;28;20543;-52
2020/12/15 02:44:27;;;;;;;25.60;9.43;;;8.80;87.80;;;;;;5014429;28;20123;-52
2020/12/15 02:46:53;;;;;;;18.40;8.70;;;8.90;87.80;;;;;;5014516;28;20466;-52
2020/12/15 02:49:19;;;;;;;24.17;10.00;;;8.90;87.80;;;;;;5033491;28;20026;-51
2020/12/15 02:51:50;;;;;;;27.00;10.55;;;8.90;87.90;;;;;;5034120;28;20033;-52
2020/12/15 02:54:17;;;;;;;19.58;8.23;;;8.90;87.80;;;;;;5033812;28;20056;-52
2020/12/15 02:56:42;;;;;;;19.55;8.18;;;8.90;87.70;;;;;;5034041;28;20075;-52
2020/12/15 02:59:09;;;;;;;15.60;8.02;;;8.80;87.90;;;;;;5034372;28;20021;-52
2020/12/15 03:01:39;;;;;;;16.02;8.48;;;8.90;87.60;;;;;;5033846;28;20447;-52
2020/12/15 03:04:05;;;;;;;19.45;9.13;;;8.80;87.80;;;;;;5014898;28;20030;-51
2020/12/15 03:06:31;;;;;;;20.95;8.93;;;8.90;87.80;;;;;;5028950;28;20439;-52
2020/12/15 03:08:57;;;;;;;20.40;9.35;;;8.90;87.90;;;;;;5033971;28;20021;-52
2020/12/15 03:11:22;;;;;;;20.67;8.38;;;8.80;87.70;;;;;;5034183;28;20033;-52
2020/12/15 03:13:49;;;;;;;20.40;8.93;;;8.90;88.00;;;;;;5027183;28;20053;-52
2020/12/15 03:16:15;;;;;;;18.83;9.00;;;8.90;87.60;;;;;;5014268;28;20057;-51
2020/12/15 03:18:41;;;;;;;22.52;9.73;;;8.90;87.70;;;;;;5014501;28;20406;-52
2020/12/15 03:21:08;;;;;;;15.32;7.07;;;8.90;87.90;;;;;;5014460;28;20046;-52
2020/12/15 03:23:34;;;;;;;24.23;8.63;;;8.90;87.60;;;;;;5014641;28;20056;-52
2020/12/15 03:26:00;;;;;;;24.45;9.60;;;8.90;87.90;;;;;;5015862;28;20455;-52
2020/12/15 03:28:25;;;;;;;23.17;9.13;;;8.90;87.80;;;;;;5052583;28;20090;-52
2020/12/15 03:30:51;;;;;;;15.38;7.45;;;8.80;87.80;;;;;;5053902;28;20469;-52
2020/12/15 03:33:17;;;;;;;22.05;8.23;;;8.80;87.80;;;;;;5034007;28;20035;-52
2020/12/15 03:35:44;;;;;;;14.93;7.47;;;8.90;87.80;;;;;;5017588;28;20172;-52
2020/12/15 03:38:10;;;;;;;17.65;7.30;;;8.80;87.70;;;;;;5017456;28;20030;-52
2020/12/15 03:40:36;;;;;;;15.75;7.13;;;8.90;87.80;;;;;;5017804;28;20053;-52
2020/12/15 03:43:02;;;;;;;16.48;7.70;;;8.90;87.70;;;;;;5017861;28;20355;-52
2020/12/15 03:45:32;;;;;;;23.35;8.60;;;8.80;87.70;;;;;;5033700;28;20469;-52
2020/12/15 03:47:58;;;;;;;19.60;8.45;;;8.90;87.60;;;;;;5024645;28;20028;-52
2020/12/15 03:50:24;;;;;;;19.80;8.60;;;8.90;87.80;;;;;;5037310;28;20034;-52
2020/12/15 03:52:51;;;;;;;18.60;7.88;;;8.90;87.70;;;;;;5036809;28;20025;-52
2020/12/15 03:55:21;;;;;;;17.55;8.73;;;8.80;87.70;;;;;;5037001;28;20412;-52
2020/12/15 03:57:49;;;;;;;15.48;7.90;;;8.90;87.60;;;;;;5030460;28;20034;-52
2020/12/15 04:00:15;;;;;;;14.40;5.80;;;8.80;87.80;;;;;;5035388;28;20032;-52
2020/12/15 04:02:41;;;;;;;15.57;7.78;;;8.90;87.90;;;;;;5035055;28;20367;-52
2020/12/15 04:05:07;;;;;;;14.77;7.05;;;8.80;87.70;;;;;;5035782;28;20438;-52
2020/12/15 04:07:32;;;;;;;15.65;5.82;;;8.90;88.00;;;;;;5017056;28;20061;-52
2020/12/15 04:09:58;;;;;;;15.52;6.80;;;8.90;88.10;;;;;;5017179;28;20025;-52
2020/12/15 04:12:23;;;;;;;12.77;6.28;;;8.80;88.40;;;;;;5017215;28;20041;-52
2020/12/15 04:14:49;;;;;;;15.65;7.80;;;8.80;87.60;;;;;;5032297;28;20018;-52
2020/12/15 04:17:14;;;;;;;18.23;6.13;;;8.80;87.70;;;;;;5035868;28;20083;-52
2020/12/15 04:19:40;;;;;;;16.58;7.10;;;8.80;87.70;;;;;;5036646;28;20355;-52
2020/12/15 04:22:06;;;;;;;13.07;6.55;;;8.90;87.80;;;;;;5035625;28;20462;-52
2020/12/15 04:24:32;;;;;;;11.57;5.90;;;8.90;87.60;;;;;;5036502;28;20028;-52
2020/12/15 04:26:58;;;;;;;14.95;7.13;;;8.90;87.70;;;;;;5035294;28;20028;-52
2020/12/15 04:29:24;;;;;;;17.42;7.75;;;8.80;87.80;;;;;;5035915;28;20032;-52
2020/12/15 04:31:50;;;;;;;12.38;5.93;;;8.80;87.90;;;;;;5035663;28;20087;-52
2020/12/15 04:34:16;;;;;;;9.88;5.75;;;8.80;87.80;;;;;;5034942;28;20030;-52
2020/12/15 04:36:42;;;;;;;13.05;6.18;;;8.90;87.70;;;;;;5027550;28;20025;-52
2020/12/15 04:39:07;;;;;;;12.27;6.72;;;8.90;87.90;;;;;;5032168;28;20040;-52
2020/12/15 04:41:33;;;;;;;8.95;5.15;;;8.80;87.70;;;;;;5034766;28;20037;-52
2020/12/15 04:43:59;;;;;;;17.80;6.88;;;8.90;87.80;;;;;;5035448;28;20028;-52
2020/12/15 04:46:28;;;;;;;10.23;5.35;;;8.90;87.70;;;;;;5035030;28;20108;-52
2020/12/15 04:49:09;;;;;;;12.13;5.95;;;8.90;87.70;;;;;;5027442;28;20096;-51
2020/12/15 04:51:47;;;;;;;12.65;6.68;;;8.80;87.60;;;;;;5036260;28;20425;-52
2020/12/15 04:54:16;;;;;;;12.75;6.47;;;8.90;87.70;;;;;;5036476;28;20077;-52
2020/12/15 04:56:43;;;;;;;13.10;6.70;;;8.90;87.60;;;;;;5018672;28;20026;-52
2020/12/15 04:59:12;;;;;;;13.50;6.28;;;8.90;87.50;;;;;;5035586;28;20033;-52
2020/12/15 05:01:39;;;;;;;13.10;6.90;;;8.90;87.60;;;;;;5034855;28;20083;-52
2020/12/15 05:04:07;;;;;;;19.20;6.68;;;8.80;87.50;;;;;;5036254;28;20072;-52
2020/12/15 05:06:37;;;;;;;11.45;6.47;;;8.80;87.60;;;;;;5035262;28;20079;-52
2020/12/15 05:09:03;;;;;;;12.93;6.03;;;8.80;87.50;;;;;;5034099;28;20045;-52
2020/12/15 05:11:29;;;;;;;11.82;6.70;;;8.90;87.70;;;;;;5021607;28;20059;-52
2020/12/15 05:13:55;;;;;;;11.85;6.30;;;8.90;87.50;;;;;;5016039;28;20435;-52
2020/12/15 05:16:21;;;;;;;13.95;6.18;;;8.80;87.50;;;;;;5029788;28;20029;-52
2020/12/15 05:18:46;;;;;;;10.93;5.97;;;8.80;87.50;;;;;;5035658;28;20026;-53
2020/12/15 05:21:19;;;;;;;14.43;6.50;;;8.80;87.30;;;;;;5035199;28;20132;-52
2020/12/15 05:23:46;;;;;;;12.00;6.72;;;8.90;87.50;;;;;;5035422;28;20033;-53
2020/12/15 05:26:20;;;;;;;13.23;6.43;;;8.80;87.50;;;;;;5029760;28;20056;-53
2020/12/15 05:28:46;;;;;;;10.55;6.15;;;8.90;87.40;;;;;;5035632;28;20030;-52
2020/12/15 05:31:14;;;;;;;14.23;5.70;;;8.90;87.30;;;;;;5016829;28;20026;-52
2020/12/15 05:33:40;;;;;;;16.02;6.75;;;8.80;87.20;;;;;;5015785;28;20030;-53
2020/12/15 05:36:18;;;;;;;12.48;6.75;;;8.90;87.30;;;;;;5025250;28;20025;-53
2020/12/15 05:38:44;;;;;;;12.73;6.75;;;8.90;87.20;;;;;;5024843;28;20018;-53
2020/12/15 05:41:13;;;;;;;16.38;6.25;;;8.90;87.30;;;;;;5029791;28;20114;-53
2020/12/15 05:43:39;;;;;;;11.65;6.00;;;8.90;87.20;;;;;;5019811;28;20041;-53
2020/12/15 05:46:06;;;;;;;11.60;6.38;;;8.90;87.20;;;;;;5026115;28;20455;-52
2020/12/15 05:48:33;;;;;;;18.10;7.50;;;8.90;87.10;;;;;;5015183;28;20056;-53
2020/12/15 05:50:58;;;;;;;16.05;7.45;;;8.80;87.10;;;;;;5019709;28;20051;-53
2020/12/15 05:53:24;;;;;;;10.75;5.70;;;8.90;87.20;;;;;;5026552;28;20060;-53
2020/12/15 05:55:50;;;;;;;15.27;6.75;;;8.90;87.10;;;;;;5023802;28;20087;-52
2020/12/15 05:58:16;;;;;;;11.98;6.18;;;8.90;87.10;;;;;;5016449;28;20033;-53
2020/12/15 06:00:42;;;;;;;13.25;6.88;;;8.90;87.30;;;;;;5030607;28;20021;-52
2020/12/15 06:03:08;;;;;;;13.13;6.65;;;8.90;87.10;;;;;;5034096;28;20052;-53
2020/12/15 06:05:35;;;;;;;12.35;6.63;;;8.90;87.10;;;;;;5022150;28;20331;-52
2020/12/15 06:08:02;;;;;;;14.05;6.88;;;8.90;87.00;;;;;;5020919;28;20030;-53
2020/12/15 06:10:29;;;;;;;13.95;7.10;;;8.80;87.10;;;;;;5028001;28;20359;-53
2020/12/15 06:12:57;;;;;;;12.73;6.45;;;8.80;87.20;;;;;;5024862;28;20036;-53
2020/12/15 06:15:23;;;;;;;12.88;6.63;;;8.90;87.10;;;;;;5022847;28;20034;-52
2020/12/15 06:17:57;;;;;;;12.13;5.97;;;8.80;88.20;;;;;;5014682;28;20037;-52
2020/12/15 06:20:29;;;;;;;14.27;7.15;;;8.80;87.20;;;;;;5022610;28;20036;-52
2020/12/15 06:22:56;;;;;;;14.65;6.00;;;8.80;87.20;;;;;;5021615;28;20029;-52
2020/12/15 06:25:33;;;;;;;12.38;6.70;;;8.80;87.00;;;;;;5022188;28;20029;-52
2020/12/15 06:28:04;;;;;;;12.23;7.30;;;8.80;86.80;;;;;;5013456;28;20037;-52
2020/12/15 06:30:32;;;;;;;17.45;6.90;;;8.90;86.90;;;;;;5021265;28;20033;-52
2020/12/15 06:33:07;;;;;;;9.10;5.30;;;8.90;86.90;;;;;;5018184;28;20026;-52
2020/12/15 06:35:33;;;;;;;10.63;5.68;;;8.90;86.90;;;;;;5024016;28;20026;-52
2020/12/15 06:38:00;;;;;;;14.88;6.65;;;8.90;86.90;;;;;;5016973;28;20068;-52
2020/12/15 06:40:37;;;;;;;12.63;6.43;;;8.80;86.80;;;;;;5024367;28;20034;-51
2020/12/15 06:43:03;;;;;;;14.77;6.32;;;8.90;86.80;;;;;;5024857;28;20037;-51
2020/12/15 06:45:28;;;;;;;12.05;6.82;;;8.80;86.90;;;;;;5023622;28;20029;-51
2020/12/15 06:48:05;;;;;;;13.93;5.75;;;8.90;86.90;;;;;;5022541;28;20402;-52
2020/12/15 06:50:41;;;;;;;11.05;5.90;;;8.90;86.90;;;;;;5018173;28;20139;-52
2020/12/15 06:53:09;;;;;;;17.17;6.97;;;8.80;86.70;;;;;;5017418;28;20030;-52
2020/12/15 06:55:34;;;;;;;13.43;5.63;;;8.90;86.90;;;;;;5023343;28;20064;-52
2020/12/15 06:58:01;;;;;;;16.67;6.82;;;8.80;86.90;;;;;;5027310;28;20036;-52
2020/12/15 07:00:35;;;;;;;12.07;5.68;;;8.80;86.70;;;;;;5027306;28;20036;-52
2020/12/15 07:03:02;;;;;;;15.75;6.55;;;8.80;87.00;;;;;;5027714;28;20053;-51
2020/12/15 07:05:31;;;;;;;13.32;6.78;;;8.80;86.80;;;;;;5019864;28;20034;-51
2020/12/15 07:07:58;;;;;;;15.75;7.50;;;8.90;86.90;;;;;;5029876;28;20439;-51
2020/12/15 07:10:29;;;;;;;10.50;6.22;;;8.80;86.80;;;;;;5026121;28;20038;-52
2020/12/15 07:12:59;;;;;;;16.45;7.70;;;8.90;86.90;;;;;;5024885;28;20072;-52
2020/12/15 07:15:29;;;;;;;13.95;7.40;;;8.80;86.70;;;;;;5032002;28;20045;-52
2020/12/15 07:17:55;;;;;;;13.65;6.57;;;8.90;86.80;;;;;;5025433;28;20117;-51
2020/12/15 07:20:22;;;;;;;16.45;6.05;;;8.90;87.00;;;;;;5026658;28;20026;-52
2020/12/15 07:22:48;;;;;;;16.45;6.50;;;8.80;86.80;;;;;;5026024;28;20068;-52
2020/12/15 07:25:15;;;;;;;12.88;6.45;;;8.90;86.80;;;;;;5026394;28;20534;-52
2020/12/15 07:27:42;;;;;;;9.88;5.75;;;8.80;86.80;;;;;;5025987;28;20030;-52
2020/12/15 07:30:20;;;;;;;14.80;6.18;;;8.90;86.90;;;;;;5026549;28;20030;-52
2020/12/15 07:32:46;;;;;;;14.85;6.00;;;8.90;86.90;;;;;;5026984;28;20366;-52
2020/12/15 07:35:13;;;;;;;11.55;6.50;;;8.90;87.00;;;;;;5025771;28;20041;-51
2020/12/15 07:37:41;;;;;;;11.40;6.00;;;8.90;86.90;;;;;;5026477;28;20032;-52
2020/12/15 07:40:12;;;;;;;10.88;6.32;;;8.90;87.10;;;;;;5026870;28;20029;-52
2020/12/15 07:42:39;;;;;;;12.55;6.78;;;8.80;86.80;;;;;;5026987;28;20447;-52
2020/12/15 07:45:07;;;;;;;12.02;7.00;;;8.90;86.90;;;;;;5026344;28;20030;-52
2020/12/15 07:47:43;;;;;;;11.68;6.55;;;8.90;86.90;;;;;;5026101;28;20038;-52
2020/12/15 07:50:10;;;;;;;10.93;5.88;;;8.90;86.90;;;;;;5026115;28;20032;-52
2020/12/15 07:52:38;;;;;;;14.70;6.90;;;8.90;86.80;;;;;;5026140;28;20057;-52
2020/12/15 07:55:13;;;;;;;11.50;6.20;;;8.90;86.90;;;;;;5025578;28;20032;-52
2020/12/15 07:57:41;;;;;;;12.00;5.57;;;8.90;87.00;;;;;;5025866;28;20042;-52
2020/12/15 08:00:15;;;;;;;13.25;6.07;;;8.90;86.90;;;;;;5024848;28;20478;-52
2020/12/15 08:02:42;;;;;;;19.65;6.28;;;8.90;87.00;;;;;;5023259;28;20079;-52
2020/12/15 08:05:10;;;;;;;11.05;5.60;;;9.00;87.20;;;;;;5022122;28;20434;-52
2020/12/15 08:07:49;;;;;;;12.60;6.70;;;9.00;86.90;;;;;;5024576;28;20026;-52
2020/12/15 08:10:22;;;;;;;8.20;4.93;;;9.00;87.00;;;;;;5025678;28;20037;-52
2020/12/15 08:12:48;;;;;;;13.95;5.50;;;9.00;87.00;;;;;;5025516;28;20030;-52
2020/12/15 08:15:14;;;;;;;10.00;4.72;;;9.00;87.00;;;;;;5027932;28;20021;-52
2020/12/15 08:17:44;;;;;;;11.77;5.97;;;9.00;87.20;;;;;;5026345;28;20018;-52
2020/12/15 08:20:10;;;;;;;11.43;5.03;;;9.00;87.00;;;;;;5030652;28;20030;-52
2020/12/15 08:22:41;;;;;;;7.43;4.07;;;9.00;87.10;;;;;;5021131;28;20463;-53
2020/12/15 08:25:12;;;;;;;10.35;5.00;;;9.00;87.00;;;;;;5024569;28;20037;-52
2020/12/15 08:27:38;;;;;;;8.80;4.38;;;9.00;87.20;;;;;;5025272;28;20099;-52
2020/12/15 08:30:18;;;;;;;9.77;5.40;;;9.00;87.20;;;;;;5025541;28;20057;-52
2020/12/15 08:32:46;;;;;;;8.27;4.70;;;9.00;87.20;;;;;;5024331;28;20033;-52
2020/12/15 08:35:11;;;;;;;10.18;6.38;;;9.00;88.00;;;;;;5022988;28;20037;-51
2020/12/15 08:37:38;;;;;;;10.88;5.28;;;9.00;87.20;;;;;;5025233;28;20447;-52
2020/12/15 08:40:07;;;;;;;10.15;5.45;;;9.00;87.10;;;;;;5024797;28;20030;-52
2020/12/15 08:42:34;;;;;;;13.50;6.85;;;9.00;87.10;;;;;;5015569;28;20042;-52
2020/12/15 08:45:11;;;;;;;11.73;6.63;;;9.00;87.60;;;;;;5022048;28;20018;-52
2020/12/15 08:47:45;;;;;;;14.55;6.28;;;9.00;87.00;;;;;;5020176;28;20026;-52
2020/12/15 08:50:12;;;;;;;13.15;7.18;;;9.00;87.00;;;;;;5025207;28;20053;-52
2020/12/15 08:52:38;;;;;;;11.93;5.93;;;9.00;87.20;;;;;;5023282;28;20116;-52
2020/12/15 08:55:04;;;;;;;12.30;5.50;;;9.10;87.10;;;;;;5023233;28;20442;-52
2020/12/15 08:57:29;;;;;;;14.63;6.22;;;9.10;87.40;;;;;;5019782;28;20044;-52
2020/12/15 08:59:55;;;;;;;10.77;5.28;;;9.00;86.90;;;;;;5031873;28;20136;-52
2020/12/15 09:02:21;;;;;;;11.23;5.70;;;9.00;87.10;;;;;;5018428;28;20383;-52
2020/12/15 09:04:46;;;;;;;10.20;6.18;;;9.10;87.70;;;;;;5022314;28;20045;-52
2020/12/15 09:07:14;;;;;;;12.38;5.90;;;9.10;87.60;;;;;;5032612;28;20041;-52
2020/12/15 09:09:40;;;;;;;14.43;6.70;;;9.10;87.60;;;;;;5018852;28;20050;-52
2020/12/15 09:12:06;;;;;;;12.77;6.50;;;9.10;87.50;;;;;;5031922;28;20067;-53
2020/12/15 09:14:31;;;;;;;9.15;5.72;;;9.10;87.60;;;;;;5020791;28;20045;-52
2020/12/15 09:16:57;;;;;;;12.45;5.80;;;9.10;87.60;;;;;;5025650;28;20431;-52
2020/12/15 09:19:24;;;;;;;10.18;5.07;;;9.10;87.60;;;;;;5022106;28;20038;-52
2020/12/15 09:22:00;;;;;;;14.77;6.10;;;9.10;87.40;;;;;;5021535;28;20025;-51
2020/12/15 09:24:28;;;;;;;11.75;5.57;;;9.10;87.40;;;;;;5018290;28;20037;-52
2020/12/15 09:26:54;;;;;;;17.95;5.65;;;9.10;87.50;;;;;;5029261;28;20029;-52
2020/12/15 09:29:20;;;;;;;9.40;5.63;;;9.10;87.70;;;;;;5026662;28;20042;-51
2020/12/15 09:31:54;;;;;;;15.15;6.32;;;9.10;87.50;;;;;;5024082;28;20087;-52
2020/12/15 09:34:21;;;;;;;14.10;7.03;;;9.10;87.30;;;;;;5019985;28;20025;-51
2020/12/15 09:36:57;;;;;;;15.82;6.90;;;9.10;87.30;;;;;;5034876;28;20446;-52
2020/12/15 09:39:25;;;;;;;13.20;6.50;;;9.10;87.50;;;;;;5026737;28;20034;-52
2020/12/15 11:33:12;;;;;;;22.80;6.55;;;9.60;89.10;;;;;;4666897;30;783904;-53
2020/12/15 11:35:38;;;;;;;16.13;5.85;;;9.60;88.80;;;;;;4595112;30;20462;-53
2020/12/15 11:38:04;;;;;;;14.85;5.80;;;9.60;89.00;;;;;;4607351;30;20067;-52
2020/12/15 11:40:30;;;;;;;13.55;6.47;;;9.60;88.70;;;;;;4569313;31;20049;-52
2020/12/15 11:42:57;;;;;;;8.32;5.28;;;9.60;88.30;;;;;;4567080;31;20129;-52
2020/12/15 11:45:24;;;;;;;11.63;5.57;;;9.60;88.30;;;;;;4564133;31;20038;-52
2020/12/15 11:47:51;;;;;;;11.05;5.40;;;9.60;89.10;;;;;;4577914;31;20369;-52
2020/12/15 11:50:18;;;;;;;13.43;6.32;;;9.50;88.40;;;;;;4574799;31;20044;-51
2020/12/15 11:52:43;;;;;;;9.50;5.47;;;9.50;88.80;;;;;;4566483;31;20053;-53
2020/12/15 11:55:09;;;;;;;12.43;6.28;;;9.60;88.60;;;;;;4563770;31;20041;-52
2020/12/15 11:57:34;;;;;;;14.45;5.43;;;9.60;88.60;;;;;;4565885;31;20057;-52
2020/12/15 12:00:04;;;;;;;9.98;5.15;;;9.60;88.30;;;;;;4563937;31;20048;-52
2020/12/15 12:02:30;;;;;;;16.20;6.80;;;9.60;88.60;;;;;;4567909;31;20477;-52
2020/12/15 12:04:55;;;;;;;8.82;3.83;;;9.60;88.80;;;;;;4567660;31;20037;-52
2020/12/15 12:07:21;;;;;;;6.90;4.22;;;9.70;90.00;;;;;;4569085;31;20065;-52
2020/12/15 12:09:47;;;;;;;12.38;5.60;;;9.70;90.00;;;;;;4563114;31;20059;-52
2020/12/15 12:12:12;;;;;;;14.43;6.05;;;9.60;90.30;;;;;;4563151;31;20050;-52
2020/12/15 12:14:38;;;;;;;10.40;3.83;;;9.60;89.80;;;;;;4563043;31;20033;-52
2020/12/15 12:17:03;;;;;;;8.88;4.40;;;9.60;90.30;;;;;;4570690;31;20041;-52
2020/12/15 12:19:29;;;;;;;11.10;6.18;;;9.60;90.10;;;;;;4577474;31;20037;-52
2020/12/15 12:21:55;;;;;;;10.50;5.63;;;9.60;90.00;;;;;;4569194;31;20044;-52
2020/12/15 12:24:20;;;;;;;10.75;5.03;;;9.60;89.30;;;;;;4555866;31;20060;-52
2020/12/15 12:26:50;;;;;;;10.68;5.68;;;9.60;89.80;;;;;;4551702;31;20095;-51
2020/12/15 12:29:16;;;;;;;17.05;6.88;;;9.60;89.70;;;;;;4548059;31;20054;-52
2020/12/15 12:31:46;;;;;;;5.75;2.60;;;9.60;90.00;;;;;;4552631;31;20057;-52
2020/12/15 12:34:12;;;;;;;8.43;5.15;;;9.60;88.90;;;;;;4639511;30;20044;-52
2020/12/15 12:36:39;;;;;;;11.38;4.57;;;9.60;89.10;;;;;;4736521;29;706768;-52
2020/12/15 12:39:05;;;;;;;8.60;5.22;;;9.60;89.20;;;;;;4761726;30;20440;-52
2020/12/15 12:41:31;;;;;;;14.05;5.72;;;9.50;89.40;;;;;;4780401;30;20118;-52
2020/12/15 12:43:56;;;;;;;18.02;6.57;;;9.60;89.40;;;;;;4791315;30;20111;-52
2020/12/15 12:46:22;;;;;;;13.65;6.40;;;9.50;89.00;;;;;;4780555;30;20032;-52
2020/12/15 12:48:47;;;;;;;11.40;5.68;;;9.50;89.20;;;;;;4772205;29;20040;-52
2020/12/15 12:51:16;;;;;;;12.50;5.32;;;9.50;89.40;;;;;;4774947;30;20116;-51
2020/12/15 12:53:43;;;;;;;11.05;5.50;;;9.50;89.20;;;;;;4775116;30;20035;-52
2020/12/15 12:56:08;;;;;;;11.70;5.88;;;9.50;89.30;;;;;;4791389;30;20046;-52
2020/12/15 12:58:34;;;;;;;11.50;4.20;;;9.50;89.70;;;;;;4791210;30;20028;-52
2020/12/15 13:01:00;;;;;;;11.35;4.22;;;9.50;89.50;;;;;;4785196;30;20042;-52
2020/12/15 13:03:26;;;;;;;8.90;4.72;;;9.50;89.50;;;;;;4786509;30;20035;-52
2020/12/15 13:05:52;;;;;;;8.50;5.18;;;9.50;90.00;;;;;;4773366;30;20042;-51
2020/12/15 13:08:17;;;;;;;13.00;6.47;;;9.50;90.00;;;;;;4772901;30;20446;-52
2020/12/15 13:10:43;;;;;;;11.27;5.40;;;9.50;89.90;;;;;;4787546;29;20030;-52
2020/12/15 13:13:08;;;;;;;18.50;5.35;;;9.50;89.80;;;;;;4785185;30;20035;-52
2020/12/15 13:15:34;;;;;;;11.02;5.75;;;9.50;89.80;;;;;;4770484;30;20040;-52
2020/12/15 13:18:00;;;;;;;10.68;5.28;;;9.50;90.20;;;;;;4774258;30;20046;-52
2020/12/15 13:20:25;;;;;;;13.40;6.15;;;9.50;90.00;;;;;;4774003;30;20027;-52
2020/12/15 13:22:52;;;;;;;12.18;5.63;;;9.50;90.30;;;;;;4771976;30;20032;-52
2020/12/15 13:25:18;;;;;;;14.18;6.35;;;9.50;89.90;;;;;;4772663;30;20051;-52
2020/12/15 13:27:43;;;;;;;13.25;6.28;;;9.50;90.00;;;;;;4774131;29;20067;-52
2020/12/15 13:30:09;;;;;;;15.77;5.75;;;9.50;90.00;;;;;;4771825;30;20035;-52
2020/12/15 13:32:36;;;;;;;10.52;5.97;;;9.50;89.70;;;;;;4771862;30;20055;-52
2020/12/15 13:35:02;;;;;;;11.95;6.10;;;9.50;90.00;;;;;;4779339;29;20034;-52
2020/12/15 13:37:28;;;;;;;13.25;6.80;;;9.50;90.00;;;;;;4800533;29;20038;-52
2020/12/15 13:39:54;;;;;;;15.00;5.90;;;9.50;89.80;;;;;;4815389;29;20042;-51
2020/12/15 13:42:19;;;;;;;10.18;5.82;;;9.50;90.10;;;;;;4813712;29;20407;-52
2020/12/15 13:44:45;;;;;;;12.27;6.00;;;9.50;90.20;;;;;;4813907;29;20027;-52
2020/12/15 13:47:12;;;;;;;11.57;5.90;;;9.50;90.20;;;;;;4800564;29;20031;-52
2020/12/15 13:49:38;;;;;;;14.43;7.00;;;9.50;90.10;;;;;;4800577;29;20033;-52
2020/12/15 13:52:04;;;;;;;16.10;7.32;;;9.50;90.10;;;;;;4809409;29;20126;-52
2020/12/15 13:54:31;;;;;;;13.77;6.68;;;9.50;90.50;;;;;;4805833;29;20522;-52
2020/12/15 13:56:57;;;;;;;12.27;6.32;;;9.50;90.20;;;;;;4795612;29;20038;-52
2020/12/15 13:59:22;;;;;;;16.45;6.95;;;9.50;90.10;;;;;;4799197;29;20362;-52
2020/12/15 14:01:48;;;;;;;14.25;6.13;;;9.50;90.20;;;;;;4806298;29;20141;-52
2020/12/15 14:04:15;;;;;;;9.98;5.32;;;9.50;90.20;;;;;;4807563;29;20072;-52
2020/12/15 14:06:41;;;;;;;10.45;5.70;;;9.50;90.30;;;;;;4809896;29;20087;-52
2020/12/15 14:09:07;;;;;;;15.75;7.78;;;9.50;90.20;;;;;;4800954;29;20123;-52
2020/12/15 14:11:33;;;;;;;12.80;6.07;;;9.50;90.30;;;;;;4799658;29;20468;-52
2020/12/15 14:13:58;;;;;;;11.50;6.28;;;9.50;90.20;;;;;;4806173;29;20063;-52
2020/12/15 14:16:24;;;;;;;11.75;6.05;;;9.50;90.20;;;;;;4810122;29;20468;-52
2020/12/15 14:18:50;;;;;;;14.00;6.93;;;9.50;90.30;;;;;;4807400;29;20035;-51
2020/12/15 14:21:16;;;;;;;17.67;6.97;;;9.50;90.20;;;;;;4807242;29;20046;-52
2020/12/15 14:23:41;;;;;;;15.73;7.40;;;9.50;90.30;;;;;;4807540;29;20465;-52
2020/12/15 14:26:11;;;;;;;17.25;6.78;;;9.50;90.30;;;;;;4807383;29;20031;-52
2020/12/15 14:28:38;;;;;;;15.82;5.95;;;9.50;90.30;;;;;;4806974;29;20046;-52
2020/12/15 14:31:04;;;;;;;19.48;8.10;;;9.50;90.40;;;;;;4807210;29;20550;-52
2020/12/15 14:33:30;;;;;;;17.02;7.47;;;9.50;90.40;;;;;;4848916;29;20063;-53
2020/12/15 14:35:56;;;;;;;15.85;7.68;;;9.50;90.30;;;;;;4916524;29;20482;-53
2020/12/15 14:38:22;;;;;;;16.45;7.38;;;9.50;90.40;;;;;;4909998;29;20032;-52